createdAt,value
2022-08-09T00:04:44.820Z,98221.63
2022-08-09T00:10:07.718Z,98220.78
2022-08-09T00:15:26.385Z,98229.13
2022-08-09T00:20:49.853Z,98237.56
2022-08-09T00:25:54.399Z,98245.00
2022-08-09T00:30:59.499Z,98237.38
2022-08-09T00:36:05.183Z,98243.22
2022-08-09T00:41:08.991Z,98251.31
2022-08-09T00:46:28.293Z,98250.84
2022-08-09T00:51:42.686Z,98248.28
2022-08-09T00:56:58.387Z,98246.44
2022-08-09T01:02:03.606Z,98238.09
2022-08-09T01:07:17.889Z,98240.16
2022-08-09T01:12:31.036Z,98247.81
2022-08-09T01:17:40.517Z,98242.91
2022-08-09T01:22:58.629Z,98236.97
2022-08-09T01:28:08.542Z,98247.16
2022-08-09T01:33:14.329Z,98254.03
2022-08-09T01:38:20.936Z,98255.03
2022-08-09T01:43:30.363Z,98253.13
2022-08-09T01:48:36.822Z,98253.22
2022-08-09T01:53:43.704Z,98253.09
2022-08-09T01:58:56.646Z,98260.47
2022-08-09T02:04:02.915Z,98259.88
2022-08-09T02:09:07.711Z,98259.34
2022-08-09T02:14:25.447Z,98259.88
2022-08-09T02:19:38.879Z,98271.88
2022-08-09T02:24:52.221Z,98267.97
2022-08-09T02:30:01.724Z,98266.38
2022-08-09T02:36:00.991Z,98269.97
2022-08-09T02:41:10.703Z,98267.38
2022-08-09T02:46:18.357Z,98281.25
2022-08-09T02:51:26.499Z,98272.06
2022-08-09T02:56:32.890Z,98267.94
2022-08-09T03:01:58.694Z,98274.94
2022-08-09T03:07:13.961Z,98271.66
2022-08-09T03:12:19.940Z,98271.44
2022-08-09T03:17:26.540Z,98270.28
2022-08-09T03:22:32.405Z,98270.28
2022-08-09T03:28:26.184Z,98274.31
2022-08-09T03:33:12.741Z,98276.91
2022-08-09T03:38:29.209Z,98282.78
2022-08-09T03:43:34.014Z,98279.88
2022-08-09T03:48:51.174Z,98279.31
2022-08-09T03:53:55.915Z,98291.09
2022-08-09T03:59:03.803Z,98288.75
2022-08-09T04:04:14.851Z,98286.72
2022-08-09T04:09:44.445Z,98288.13
2022-08-09T04:15:01.129Z,98297.66
2022-08-09T04:20:09.551Z,98297.06
2022-08-09T04:25:14.687Z,98306.72
2022-08-09T04:30:20.829Z,98304.91
2022-08-09T04:35:29.435Z,98303.31
2022-08-09T04:40:56.042Z,98309.16
2022-08-09T04:46:01.270Z,98304.09
2022-08-09T04:51:06.326Z,98308.19
2022-08-09T04:56:09.950Z,98319.22
2022-08-09T05:01:16.231Z,98328.97
2022-08-09T05:06:27.915Z,98320.25
2022-08-09T05:11:35.524Z,98326.16
2022-08-09T05:16:58.282Z,98329.44
2022-08-09T05:22:04.527Z,98343.78
2022-08-09T05:27:08.146Z,98346.31
2022-08-09T05:32:17.305Z,98351.25
2022-08-09T05:37:22.202Z,98358.78
2022-08-09T05:42:28.624Z,98367.25
2022-08-09T05:47:33.238Z,98369.41
2022-08-09T05:52:38.876Z,98364.53
2022-08-09T05:57:51.261Z,98372.03
2022-08-09T06:03:01.396Z,98367.75
2022-08-09T06:08:08.079Z,98373.72
2022-08-09T06:13:18.980Z,98386.00
2022-08-09T06:18:25.626Z,98390.91
2022-08-09T06:23:57.962Z,98400.06
2022-08-09T06:29:00.260Z,98395.84
2022-08-09T06:34:05.707Z,98392.41
2022-08-09T06:39:13.630Z,98392.28
2022-08-09T06:44:18.518Z,98391.56
2022-08-09T06:49:35.035Z,98386.50
2022-08-09T06:54:50.677Z,98386.06
2022-08-09T07:00:50.918Z,98380.63
2022-08-09T07:05:18.665Z,98385.34
2022-08-09T07:10:31.330Z,98388.72
2022-08-09T07:16:38.433Z,98389.72
2022-08-09T07:21:00.198Z,98398.97
2022-08-09T07:26:05.521Z,98394.78
2022-08-09T07:31:09.362Z,98393.72
2022-08-09T07:36:14.911Z,98383.00
2022-08-09T07:41:20.202Z,98379.31
2022-08-09T07:46:27.745Z,98387.94
2022-08-09T07:52:04.276Z,98376.53
2022-08-09T07:56:58.582Z,98385.94
2022-08-09T08:02:02.672Z,98387.72
2022-08-09T08:07:15.105Z,98386.97
2022-08-09T08:12:32.163Z,98384.44
2022-08-09T08:17:53.436Z,98375.53
2022-08-09T08:23:01.675Z,98374.44
2022-08-09T08:28:11.507Z,98367.66
2022-08-09T08:33:22.830Z,98367.94
2022-08-09T08:38:28.291Z,98367.16
2022-08-09T08:43:33.834Z,98370.16
2022-08-09T08:48:43.007Z,98367.94
2022-08-09T08:54:03.365Z,98357.38
2022-08-09T08:59:19.778Z,98361.44
2022-08-09T09:04:27.717Z,98359.41
2022-08-09T09:10:01.740Z,98360.41
2022-08-09T09:15:00.947Z,98365.56
2022-08-09T09:20:08.762Z,98361.22
2022-08-09T09:26:02.524Z,98356.91
2022-08-09T09:31:00.656Z,98350.53
2022-08-09T09:36:20.677Z,98348.69
2022-08-09T09:41:49.371Z,98345.94
2022-08-09T09:46:58.992Z,98354.00
2022-08-09T09:52:04.964Z,98331.47
2022-08-09T09:58:02.568Z,98324.69
2022-08-09T10:02:47.687Z,98336.66
2022-08-09T10:08:26.024Z,98334.75
2022-08-09T10:13:45.307Z,98328.59
2022-08-09T10:18:55.263Z,98328.97
2022-08-09T10:24:03.856Z,98314.81
2022-08-09T10:29:31.382Z,98327.97
2022-08-09T10:34:35.811Z,98323.69
2022-08-09T10:39:49.245Z,98308.66
2022-08-09T10:44:59.415Z,98314.41
2022-08-09T10:50:14.806Z,98307.72
2022-08-09T10:55:24.013Z,98304.78
2022-08-09T11:00:41.771Z,98309.41
2022-08-09T11:06:22.812Z,98296.19
2022-08-09T11:11:27.290Z,98302.94
2022-08-09T11:16:41.014Z,98307.47
2022-08-09T11:22:10.837Z,98309.31
2022-08-09T11:28:02.711Z,98307.44
2022-08-09T11:33:04.580Z,98312.06
2022-08-09T11:38:19.342Z,98300.94
2022-08-09T11:43:44.207Z,98288.09
2022-08-09T11:48:50.261Z,98301.75
2022-08-09T11:54:21.476Z,98297.19
2022-08-09T11:59:33.726Z,98298.69
2022-08-09T12:04:38.948Z,98286.19
2022-08-09T12:09:50.706Z,98283.91
2022-08-09T12:15:07.912Z,98291.47
2022-08-09T12:20:16.763Z,98293.06
2022-08-09T12:25:36.419Z,98278.88
2022-08-09T12:30:43.297Z,98284.09
2022-08-09T12:35:50.537Z,98276.31
2022-08-09T12:40:56.554Z,98275.50
2022-08-09T12:46:01.315Z,98275.19
2022-08-09T12:51:06.031Z,98269.09
2022-08-09T12:56:39.619Z,98270.56
2022-08-09T13:01:47.019Z,98267.97
2022-08-09T13:06:54.126Z,98264.38
2022-08-09T13:12:05.590Z,98261.44
2022-08-09T13:17:44.424Z,98265.06
2022-08-09T13:23:01.176Z,98248.03
2022-08-09T13:28:24.495Z,98249.16
2022-08-09T13:33:52.234Z,98263.66
2022-08-09T13:39:02.204Z,98256.91
2022-08-09T13:44:16.655Z,98253.31
2022-08-09T13:49:21.489Z,98253.41
2022-08-09T13:54:42.902Z,98242.16
2022-08-09T14:00:04.519Z,98241.38
2022-08-09T14:05:57.355Z,98232.44
2022-08-09T14:10:50.551Z,98228.13
2022-08-09T14:16:09.130Z,98237.72
2022-08-09T14:21:18.423Z,98242.13
2022-08-09T14:26:23.565Z,98229.78
2022-08-09T14:31:50.045Z,98230.75
2022-08-09T14:36:54.803Z,98236.28
2022-08-09T14:41:58.679Z,98238.50
2022-08-09T14:47:27.423Z,98237.13
2022-08-09T14:52:28.306Z,98252.38
2022-08-09T14:57:43.377Z,98245.19
2022-08-09T15:02:52.109Z,98233.44
2022-08-09T15:07:58.361Z,98228.06
2022-08-09T15:13:04.088Z,98221.31
2022-08-09T15:18:14.248Z,98231.59
2022-08-09T15:24:01.831Z,98236.06
2022-08-09T15:28:42.682Z,98226.25
2022-08-09T15:34:15.485Z,98222.19
2022-08-09T15:39:25.083Z,98221.38
2022-08-09T15:44:38.889Z,98225.25
2022-08-09T15:50:00.546Z,98233.97
2022-08-09T15:55:10.672Z,98207.50
2022-08-09T16:00:24.381Z,98209.22
2022-08-09T16:05:47.183Z,98215.38
2022-08-09T16:10:56.927Z,98209.03
2022-08-09T16:16:11.518Z,98214.78
2022-08-09T16:21:25.711Z,98209.47
2022-08-09T16:26:35.683Z,98216.38
2022-08-09T16:32:19.669Z,98212.81
2022-08-09T16:37:07.602Z,98215.19
2022-08-09T16:42:11.576Z,98217.50
2022-08-09T16:48:41.702Z,98219.03
2022-08-09T16:52:43.811Z,98207.69
2022-08-09T16:58:08.061Z,98206.00
2022-08-09T17:03:21.631Z,98205.53
2022-08-09T17:08:45.795Z,98200.44
2022-08-09T17:14:01.754Z,98217.09
2022-08-09T17:19:06.293Z,98214.03
2022-08-09T17:24:28.531Z,98202.13
2022-08-09T17:29:38.062Z,98223.56
2022-08-09T17:35:07.391Z,98219.00
2022-08-09T17:40:17.924Z,98227.13
2022-08-09T17:45:27.580Z,98228.22
2022-08-09T17:50:55.976Z,98237.69
2022-08-09T17:56:07.619Z,98239.50
2022-08-09T18:01:13.163Z,98243.59
2022-08-09T18:06:32.453Z,98251.81
2022-08-09T18:12:05.422Z,98253.19
2022-08-09T18:17:03.690Z,98254.47
2022-08-09T18:22:13.078Z,98256.59
2022-08-09T18:27:59.767Z,98260.53
2022-08-09T18:32:45.391Z,98267.97
2022-08-09T18:37:57.898Z,98265.38
2022-08-09T18:43:03.063Z,98272.38
2022-08-09T18:48:08.493Z,98289.34
2022-08-09T18:53:13.552Z,98290.13
2022-08-09T18:58:32.045Z,98300.38
2022-08-09T19:03:54.681Z,98304.94
2022-08-09T19:09:02.728Z,98315.63
2022-08-09T19:14:11.822Z,98317.38
2022-08-09T19:19:26.180Z,98316.38
2022-08-09T19:24:38.591Z,98319.53
2022-08-09T19:30:21.338Z,98322.84
2022-08-09T19:35:26.226Z,98330.25
2022-08-09T19:40:34.518Z,98337.34
2022-08-09T19:45:41.176Z,98342.66
2022-08-09T19:50:50.877Z,98348.31
2022-08-09T19:56:03.054Z,98349.75
2022-08-09T20:01:11.932Z,98347.91
2022-08-09T20:06:22.357Z,98361.94
2022-08-09T20:11:43.453Z,98354.88
2022-08-09T20:16:55.069Z,98354.88
2022-08-09T20:22:02.423Z,98355.50
2022-08-09T20:27:11.594Z,98364.03
2022-08-09T20:32:30.066Z,98357.66
2022-08-09T20:38:22.020Z,98356.91
2022-08-09T20:43:18.429Z,98362.81
2022-08-09T20:48:31.677Z,98374.69
2022-08-09T20:53:38.949Z,98368.66
2022-08-09T20:58:44.127Z,98369.22
2022-08-09T21:04:08.356Z,98370.63
2022-08-09T21:09:16.463Z,98372.47
2022-08-09T21:14:40.325Z,98376.69
2022-08-09T22:13:43.323Z,98391.94
2022-08-09T22:18:54.035Z,98394.41
2022-08-09T22:24:01.601Z,98394.34
2022-08-09T22:29:10.036Z,98389.06
2022-08-09T22:34:15.062Z,98391.00
2022-08-09T22:39:47.284Z,98389.66
2022-08-09T22:44:45.623Z,98397.91
2022-08-09T22:49:51.911Z,98396.56
2022-08-09T22:54:55.910Z,98407.34
2022-08-09T23:00:00.869Z,98407.88
2022-08-09T23:05:06.451Z,98404.09
2022-08-09T23:10:10.578Z,98410.44
2022-08-09T23:15:15.674Z,98410.91
2022-08-09T23:20:19.230Z,98398.38
2022-08-09T23:25:22.926Z,98401.16
2022-08-09T23:30:27.878Z,98398.00
2022-08-09T23:35:31.516Z,98398.25
2022-08-09T23:40:56.454Z,98395.94
2022-08-09T23:46:02.346Z,98396.34
2022-08-09T23:51:06.684Z,98391.88
2022-08-09T23:56:11.348Z,98392.94
